Time;durP1;ratioP1;P1;durP2;ratioP2;P2;SDS_P1;SDS_P2;PMS_P1;PMS_P2;Temp;Humidity;BMP_temperature;BMP_pressure;BME280_temperature;BME280_humidity;BME280_pressure;Samples;Min_cycle;Max_cycle;Signal;HPM_P1;HPM_P2
2021/07/17 00:00:07;;;;;;;52.50;25.25;;;;;;;13.93;100.00;98233.41;4990335;28;20085;-61
2021/07/17 00:02:54;;;;;;;47.33;27.27;;;;;;;13.92;100.00;98226.53;4989168;28;20170;-62
2021/07/17 00:05:43;;;;;;;47.70;28.90;;;;;;;13.87;100.00;98236.34;4987960;28;20588;-62
2021/07/17 00:08:31;;;;;;;51.42;28.63;;;;;;;13.90;100.00;98230.97;4990660;28;20462;-61
2021/07/17 00:11:19;;;;;;;48.17;27.33;;;;;;;13.94;100.00;98232.53;4991546;28;20465;-63
2021/07/17 00:14:07;;;;;;;56.67;27.13;;;;;;;14.00;100.00;98227.00;4990732;28;20038;-61
2021/07/17 00:16:55;;;;;;;58.75;28.50;;;;;;;14.04;100.00;98225.09;4988529;28;20126;-63
2021/07/17 00:19:42;;;;;;;48.88;26.88;;;;;;;14.09;100.00;98228.34;4987202;28;20049;-64
2021/07/17 00:22:30;;;;;;;50.75;27.23;;;;;;;14.15;100.00;98225.47;4976918;28;20135;-62
2021/07/17 00:25:20;;;;;;;50.30;26.70;;;;;;;14.17;100.00;98221.00;4989163;28;20124;-61
2021/07/17 00:28:07;;;;;;;65.88;28.77;;;;;;;14.17;100.00;98221.00;4988542;28;20043;-62
2021/07/17 00:30:55;;;;;;;50.40;28.20;;;;;;;14.19;100.00;98224.41;4987009;28;20050;-62
2021/07/17 00:33:43;;;;;;;52.88;28.30;;;;;;;14.20;100.00;98223.47;4988365;28;20052;-62
2021/07/17 00:36:31;;;;;;;41.75;25.38;;;;;;;14.21;100.00;98220.78;4989479;28;20169;-62
2021/07/17 00:39:18;;;;;;;53.83;30.00;;;;;;;14.21;100.00;98223.41;4980458;28;20046;-62
2021/07/17 00:42:06;;;;;;;50.60;28.75;;;;;;;14.28;100.00;98226.56;4988486;28;20054;-61
2021/07/17 00:44:54;;;;;;;55.42;27.05;;;;;;;14.31;100.00;98222.97;4988785;28;20050;-62
2021/07/17 00:47:41;;;;;;;46.70;27.55;;;;;;;14.30;100.00;98218.66;4970071;28;20529;-62
2021/07/17 00:50:29;;;;;;;57.17;28.60;;;;;;;14.30;100.00;98221.25;4989401;28;20046;-62
2021/07/17 00:53:17;;;;;;;51.35;28.48;;;;;;;14.29;100.00;98219.59;4991122;28;20045;-61
2021/07/17 00:56:05;;;;;;;54.53;29.42;;;;;;;14.25;100.00;98221.47;4989610;28;20089;-62
2021/07/17 00:58:58;;;;;;;44.47;28.05;;;;;;;14.32;100.00;98219.44;4985027;28;20411;-62
2021/07/17 01:01:47;;;;;;;45.50;25.52;;;;;;;14.33;100.00;98224.59;4974749;28;20050;-62
2021/07/17 01:04:36;;;;;;;43.65;26.45;;;;;;;14.35;100.00;98221.91;4981481;28;20058;-62
2021/07/17 01:07:26;;;;;;;46.05;26.48;;;;;;;14.37;100.00;98214.84;4977569;28;20054;-62
2021/07/17 01:10:17;;;;;;;46.95;25.95;;;;;;;14.38;100.00;98222.59;4986728;28;20053;-62
2021/07/17 01:13:05;;;;;;;44.10;27.23;;;;;;;14.41;100.00;98227.69;4991666;28;20034;-61
2021/07/17 01:15:53;;;;;;;50.72;25.92;;;;;;;14.48;100.00;98219.53;4989843;28;20114;-62
2021/07/17 01:18:41;;;;;;;51.42;27.33;;;;;;;14.46;100.00;98222.25;4974578;28;20058;-63
2021/07/17 01:21:29;;;;;;;49.08;26.17;;;;;;;14.50;100.00;98226.38;4990151;28;20061;-62
2021/07/17 01:24:17;;;;;;;57.22;28.13;;;;;;;14.41;100.00;98211.16;4974433;28;20050;-62
2021/07/17 01:27:05;;;;;;;49.95;28.88;;;;;;;14.35;100.00;98219.31;4992213;28;20140;-61
2021/07/17 01:29:53;;;;;;;51.03;29.15;;;;;;;14.27;100.00;98216.19;4978827;28;20042;-61
2021/07/17 01:32:41;;;;;;;55.20;28.98;;;;;;;14.26;100.00;98222.34;4991181;28;20046;-61
2021/07/17 01:35:29;;;;;;;54.05;30.40;;;;;;;14.17;100.00;98224.47;4989977;28;20117;-62
2021/07/17 01:38:16;;;;;;;53.10;31.00;;;;;;;14.11;100.00;98219.53;4992287;28;20108;-62
2021/07/17 01:41:04;;;;;;;54.28;29.50;;;;;;;14.13;100.00;98224.69;4991498;28;20126;-62
2021/07/17 01:43:55;;;;;;;51.15;30.58;;;;;;;14.17;100.00;98226.25;4991455;28;20047;-62
2021/07/17 01:46:43;;;;;;;55.65;29.90;;;;;;;14.17;100.00;98219.25;4990429;28;20147;-62
2021/07/17 01:49:31;;;;;;;52.60;30.27;;;;;;;14.17;100.00;98221.84;4961422;28;20053;-62
2021/07/17 01:52:19;;;;;;;53.47;29.48;;;;;;;14.22;100.00;98222.47;4978163;28;20038;-62
2021/07/17 01:55:10;;;;;;;51.85;28.20;;;;;;;14.25;100.00;98215.41;4972004;28;20097;-62
2021/07/17 01:57:58;;;;;;;46.63;28.67;;;;;;;14.25;100.00;98205.81;4991901;28;20422;-62
2021/07/17 02:00:47;;;;;;;55.38;31.83;;;;;;;14.27;100.00;98209.19;4979564;28;20030;-61
2021/07/17 02:03:36;;;;;;;45.60;28.65;;;;;;;14.33;100.00;98203.69;4971675;28;20363;-62
2021/07/17 02:06:26;;;;;;;62.33;30.88;;;;;;;14.28;100.00;98192.63;4988754;28;20137;-62
2021/07/17 02:09:14;;;;;;;52.42;29.15;;;;;;;14.26;100.00;98194.47;4993886;28;20041;-61
2021/07/17 02:12:03;;;;;;;53.20;29.10;;;;;;;14.24;100.00;98193.69;4992009;28;20051;-62
2021/07/17 02:14:52;;;;;;;50.80;29.95;;;;;;;14.20;100.00;98184.31;4993030;28;20038;-62
2021/07/17 02:17:40;;;;;;;48.60;29.48;;;;;;;14.23;100.00;98186.75;4980920;28;20599;-62
2021/07/17 02:20:28;;;;;;;53.67;29.25;;;;;;;14.27;100.00;98187.47;4977224;28;20038;-62
2021/07/17 02:23:16;;;;;;;44.67;26.50;;;;;;;14.36;100.00;98187.03;4990197;28;20074;-62
2021/07/17 02:26:04;;;;;;;51.60;29.60;;;;;;;14.42;100.00;98186.75;4980089;28;20042;-62
2021/07/17 02:28:52;;;;;;;55.10;30.05;;;;;;;14.48;100.00;98180.34;4979002;28;20073;-62
2021/07/17 02:31:41;;;;;;;43.63;28.70;;;;;;;14.52;100.00;98179.28;4989965;28;20483;-62
2021/07/17 02:34:29;;;;;;;49.75;30.15;;;;;;;14.49;100.00;98175.06;4988177;28;20537;-62
2021/07/17 02:37:17;;;;;;;49.47;28.30;;;;;;;14.52;100.00;98177.53;4987751;28;20142;-62
2021/07/17 02:40:07;;;;;;;47.35;28.30;;;;;;;14.56;100.00;98173.88;4992272;28;20046;-62
2021/07/17 02:42:54;;;;;;;47.05;26.50;;;;;;;14.57;100.00;98172.09;4991787;28;20082;-62
2021/07/17 02:45:42;;;;;;;47.40;27.55;;;;;;;14.60;100.00;98177.19;4992253;28;20127;-62
2021/07/17 02:48:30;;;;;;;50.45;29.13;;;;;;;14.59;100.00;98173.72;4991815;28;20141;-62
2021/07/17 02:51:18;;;;;;;45.88;27.98;;;;;;;14.61;100.00;98174.50;4992202;28;20104;-62
2021/07/17 02:54:07;;;;;;;58.58;30.08;;;;;;;14.61;100.00;98179.72;4990174;28;20133;-62
2021/07/17 02:56:55;;;;;;;60.40;30.65;;;;;;;14.62;100.00;98185.81;4990147;28;20093;-62
2021/07/17 02:59:43;;;;;;;52.85;29.17;;;;;;;14.57;100.00;98175.59;4992870;28;20133;-62
2021/07/17 03:02:30;;;;;;;54.63;27.90;;;;;;;14.67;100.00;98172.53;4988374;28;20054;-62
2021/07/17 03:05:18;;;;;;;52.97;27.58;;;;;;;14.62;100.00;98173.59;4990242;28;20610;-64
2021/07/17 03:08:06;;;;;;;52.03;28.98;;;;;;;14.58;100.00;98173.81;4982650;28;20054;-64
2021/07/17 03:10:55;;;;;;;48.03;28.67;;;;;;;14.57;100.00;98174.72;4999524;28;20078;-64
2021/07/17 03:13:42;;;;;;;51.00;28.27;;;;;;;14.58;100.00;98172.03;4992553;28;20053;-64
2021/07/17 03:16:31;;;;;;;53.13;28.98;;;;;;;14.61;100.00;98171.88;4990687;28;20077;-64
2021/07/17 03:19:19;;;;;;;57.10;30.80;;;;;;;14.59;100.00;98178.94;4988229;28;20043;-64
2021/07/17 03:22:08;;;;;;;49.67;29.90;;;;;;;14.59;100.00;98180.72;4986902;28;20081;-64
2021/07/17 03:24:56;;;;;;;63.40;28.67;;;;;;;14.62;100.00;98181.44;4990588;28;20038;-64
2021/07/17 03:27:43;;;;;;;44.33;28.23;;;;;;;14.66;100.00;98182.09;4971050;28;20098;-64
2021/07/17 03:30:31;;;;;;;49.65;29.13;;;;;;;14.66;100.00;98183.88;4987001;28;20054;-64
2021/07/17 03:33:20;;;;;;;49.50;28.90;;;;;;;14.65;100.00;98183.03;4976805;28;20105;-64
2021/07/17 03:36:07;;;;;;;53.05;26.83;;;;;;;14.70;100.00;98190.66;4987220;28;20042;-64
2021/07/17 03:38:55;;;;;;;49.72;29.55;;;;;;;14.73;100.00;98188.72;4990961;28;20047;-64
2021/07/17 03:41:43;;;;;;;50.60;27.67;;;;;;;14.78;100.00;98186.75;4989643;28;20049;-64
2021/07/17 03:44:31;;;;;;;41.88;22.52;;;;;;;14.82;100.00;98190.91;4990765;28;20121;-64
2021/07/17 03:47:19;;;;;;;39.28;25.08;;;;;;;14.91;100.00;98186.94;4989605;28;20054;-64
2021/07/17 03:50:07;;;;;;;33.90;22.65;;;;;;;14.99;100.00;98183.97;4989679;28;20133;-64
2021/07/17 03:52:54;;;;;;;43.78;25.45;;;;;;;14.95;100.00;98188.50;4988078;28;20553;-64
2021/07/17 03:55:42;;;;;;;40.72;28.38;;;;;;;14.92;100.00;98191.28;4989178;28;20047;-64
2021/07/17 03:58:30;;;;;;;50.53;27.38;;;;;;;14.94;100.00;98199.00;4990767;28;20535;-64
2021/07/17 04:01:18;;;;;;;47.38;26.73;;;;;;;14.94;100.00;98193.78;4989707;28;20047;-64
2021/07/17 04:04:08;;;;;;;41.50;24.15;;;;;;;15.04;100.00;98189.81;4990169;28;20387;-64
2021/07/17 04:06:56;;;;;;;34.00;22.00;;;;;;;15.16;100.00;98193.56;4987476;28;20046;-64
2021/07/17 04:09:44;;;;;;;40.50;24.50;;;;;;;15.11;100.00;98192.94;4981792;28;20080;-64
2021/07/17 04:12:32;;;;;;;48.05;25.63;;;;;;;15.11;100.00;98195.56;4990879;28;20054;-64
2021/07/17 04:15:20;;;;;;;41.88;23.25;;;;;;;15.13;100.00;98188.50;4972113;28;20043;-64
2021/07/17 04:18:08;;;;;;;40.05;25.27;;;;;;;15.14;100.00;98188.38;4972383;28;20047;-64
2021/07/17 04:20:56;;;;;;;48.97;26.35;;;;;;;15.11;100.00;98195.56;4989808;28;20043;-64
2021/07/17 04:23:44;;;;;;;35.03;21.58;;;;;;;15.23;100.00;98193.16;4992577;28;20522;-64
2021/07/17 04:26:35;;;;;;;45.15;24.85;;;;;;;15.19;100.00;98196.88;4982773;28;20047;-62
2021/07/17 04:29:23;;;;;;;42.55;25.83;;;;;;;15.11;100.00;98190.34;4991443;28;20398;-64
2021/07/17 04:32:11;;;;;;;42.70;24.98;;;;;;;15.11;100.00;98199.00;4989621;28;20522;-64
2021/07/17 04:34:59;;;;;;;48.83;25.45;;;;;;;15.14;100.00;98203.25;4989895;28;20058;-61
2021/07/17 04:37:48;;;;;;;42.10;25.73;;;;;;;15.21;100.00;98205.47;4977312;28;20042;-62
2021/07/17 04:40:36;;;;;;;47.55;28.02;;;;;;;15.15;100.00;98205.78;4990116;28;20049;-62
2021/07/17 04:43:24;;;;;;;41.92;25.70;;;;;;;15.21;100.00;98199.38;4989942;28;20534;-61
2021/07/17 04:46:12;;;;;;;48.78;25.27;;;;;;;15.18;100.00;98205.63;4989116;28;20053;-62
2021/07/17 04:48:59;;;;;;;48.78;26.30;;;;;;;15.17;100.00;98206.56;4989194;28;20451;-62
2021/07/17 04:51:47;;;;;;;48.50;28.20;;;;;;;15.23;100.00;98218.47;4989495;28;20050;-62
2021/07/17 04:54:35;;;;;;;44.35;26.05;;;;;;;15.29;100.00;98214.69;4991242;28;20503;-62
2021/07/17 04:57:23;;;;;;;43.97;27.25;;;;;;;15.21;100.00;98217.69;4990673;28;20054;-62
2021/07/17 05:00:11;;;;;;;44.72;26.63;;;;;;;15.23;100.00;98215.84;4977532;28;20079;-62
2021/07/17 05:02:59;;;;;;;36.85;25.08;;;;;;;15.39;100.00;98215.91;4994793;28;20050;-64
2021/07/17 05:05:47;;;;;;;36.65;22.67;;;;;;;15.47;100.00;98206.72;4993166;28;20057;-63
2021/07/17 05:08:35;;;;;;;34.33;22.30;;;;;;;15.57;100.00;98201.84;4993170;28;20042;-64
2021/07/17 05:11:23;;;;;;;41.05;25.25;;;;;;;15.57;100.00;98208.88;4999446;28;20069;-64
2021/07/17 05:14:10;;;;;;;45.97;25.30;;;;;;;15.47;100.00;98211.97;4991129;28;20034;-64
2021/07/17 05:16:58;;;;;;;37.53;23.40;;;;;;;15.45;100.00;98208.56;4991228;28;20384;-64
2021/07/17 05:19:46;;;;;;;34.50;24.38;;;;;;;15.50;100.00;98210.13;4994090;28;20121;-64
2021/07/17 05:22:34;;;;;;;36.88;22.45;;;;;;;15.64;100.00;98211.06;4974911;28;20051;-64
2021/07/17 05:25:22;;;;;;;38.90;23.33;;;;;;;15.67;100.00;98207.47;4987873;28;20519;-64
2021/07/17 05:28:10;;;;;;;35.72;22.77;;;;;;;15.77;99.38;98206.06;4994452;28;20050;-64
2021/07/17 05:30:58;;;;;;;37.20;23.42;;;;;;;15.67;99.58;98216.16;4992878;28;20542;-64
2021/07/17 05:33:45;;;;;;;35.25;21.20;;;;;;;15.82;99.43;98209.28;4992910;28;20253;-64
2021/07/17 05:36:33;;;;;;;38.80;24.13;;;;;;;15.81;99.29;98206.75;5004990;28;20041;-63
2021/07/17 05:39:21;;;;;;;42.25;25.48;;;;;;;15.63;100.00;98214.63;4993032;28;20054;-64
2021/07/17 05:42:09;;;;;;;40.92;24.23;;;;;;;15.66;100.00;98222.28;4991384;28;20101;-64
2021/07/17 05:44:57;;;;;;;35.00;22.60;;;;;;;15.83;99.52;98210.97;4995156;28;20113;-64
2021/07/17 05:47:44;;;;;;;33.45;22.10;;;;;;;15.76;99.36;98219.22;4994084;28;20094;-64
2021/07/17 05:50:32;;;;;;;31.10;22.20;;;;;;;15.89;99.30;98217.63;4993731;28;20069;-64
2021/07/17 05:53:21;;;;;;;33.67;22.50;;;;;;;15.82;99.82;98222.34;4973892;28;20050;-64
2021/07/17 05:56:09;;;;;;;33.67;22.17;;;;;;;15.87;98.94;98222.97;4983935;28;20372;-64
2021/07/17 05:58:57;;;;;;;37.85;22.25;;;;;;;15.99;98.63;98229.31;4975338;28;20079;-64
2021/07/17 06:01:45;;;;;;;30.95;19.42;;;;;;;16.15;98.10;98220.59;4989054;28;20066;-64
2021/07/17 06:04:33;;;;;;;35.95;23.52;;;;;;;15.85;98.67;98223.97;4992739;28;20053;-64
2021/07/17 06:07:21;;;;;;;38.03;23.52;;;;;;;16.18;98.08;98230.94;4992787;28;20101;-64
2021/07/17 06:10:10;;;;;;;37.30;20.80;;;;;;;16.14;97.87;98232.03;4991486;28;20042;-64
2021/07/17 06:12:58;;;;;;;32.78;21.23;;;;;;;16.05;98.23;98233.38;4972438;28;20054;-64
2021/07/17 06:15:46;;;;;;;32.63;20.35;;;;;;;16.10;98.64;98228.72;4990194;28;20078;-64
2021/07/17 06:18:34;;;;;;;35.83;21.65;;;;;;;16.19;97.91;98230.84;4992606;28;20086;-64
2021/07/17 06:21:22;;;;;;;30.83;19.35;;;;;;;16.22;97.44;98235.09;4990394;28;20105;-64
2021/07/17 06:24:10;;;;;;;30.20;21.02;;;;;;;16.14;98.04;98230.25;4992965;28;20519;-64
2021/07/17 06:26:58;;;;;;;34.55;22.75;;;;;;;16.26;97.02;98234.84;4991838;28;20069;-64
2021/07/17 06:29:45;;;;;;;34.00;20.77;;;;;;;16.24;97.44;98239.31;4991086;28;20078;-64
2021/07/17 06:32:33;;;;;;;30.05;19.25;;;;;;;16.39;96.87;98236.75;4991012;28;20038;-64
2021/07/17 06:35:21;;;;;;;34.63;21.52;;;;;;;16.21;97.92;98231.59;4992533;28;20034;-64
2021/07/17 06:38:09;;;;;;;30.80;20.77;;;;;;;16.38;96.67;98232.47;4991303;28;20442;-64
2021/07/17 06:40:57;;;;;;;43.08;22.58;;;;;;;16.36;96.58;98237.78;4990549;28;20149;-64
2021/07/17 06:43:44;;;;;;;29.73;17.65;;;;;;;16.73;95.79;98231.28;4992144;28;20049;-64
2021/07/17 06:46:32;;;;;;;33.67;20.17;;;;;;;16.76;94.60;98227.66;4992632;28;20137;-62
2021/07/17 06:49:20;;;;;;;33.63;21.65;;;;;;;16.73;94.03;98222.59;4992616;28;20046;-62
2021/07/17 06:52:08;;;;;;;36.78;21.33;;;;;;;16.88;93.41;98232.25;4992167;28;20466;-63
2021/07/17 06:54:55;;;;;;;32.50;19.67;;;;;;;16.97;93.13;98235.25;4990352;28;20099;-61
2021/07/17 06:57:45;;;;;;;33.92;19.85;;;;;;;16.96;92.85;98226.53;4991427;28;20050;-61
2021/07/17 07:00:34;;;;;;;35.35;20.80;;;;;;;16.84;92.58;98233.34;4992882;28;20047;-63
2021/07/17 07:03:22;;;;;;;40.92;21.75;;;;;;;16.75;93.21;98233.00;4991172;28;20146;-62
2021/07/17 07:06:11;;;;;;;39.25;21.85;;;;;;;16.74;93.21;98242.66;4991306;28;20057;-61
2021/07/17 07:08:59;;;;;;;37.80;20.10;;;;;;;16.72;94.13;98239.25;4992186;28;20053;-62
2021/07/17 07:11:46;;;;;;;35.38;20.08;;;;;;;16.83;93.47;98244.78;4987827;28;20113;-62
2021/07/17 07:14:34;;;;;;;37.70;20.65;;;;;;;16.85;93.03;98247.28;4974628;28;20471;-61
2021/07/17 07:17:21;;;;;;;38.22;21.40;;;;;;;16.92;92.64;98251.25;4991818;28;20042;-62
2021/07/17 07:20:11;;;;;;;43.28;22.33;;;;;;;16.72;93.25;98252.38;4977920;28;20042;-61
2021/07/17 07:22:59;;;;;;;35.42;20.63;;;;;;;16.70;93.66;98255.06;4988180;28;20045;-61
2021/07/17 07:25:46;;;;;;;38.60;20.77;;;;;;;16.88;92.28;98258.47;4998931;28;20049;-62
2021/07/17 07:28:37;;;;;;;35.05;18.98;;;;;;;16.97;92.81;98258.84;5000341;28;20052;-61
2021/07/17 07:31:25;;;;;;;36.42;21.25;;;;;;;16.88;91.59;98260.25;5009366;28;20050;-61
2021/07/17 07:34:13;;;;;;;36.05;20.17;;;;;;;16.92;91.77;98259.97;4989340;28;20681;-61
2021/07/17 07:37:01;;;;;;;30.50;18.67;;;;;;;17.05;91.37;98267.97;4988718;28;20042;-61
2021/07/17 07:39:48;;;;;;;30.88;18.58;;;;;;;17.14;91.21;98269.22;4983171;28;20050;-61
2021/07/17 07:42:36;;;;;;;33.50;18.80;;;;;;;17.38;90.84;98274.81;4991052;28;20050;-62
2021/07/17 07:45:24;;;;;;;32.15;17.70;;;;;;;17.41;90.22;98286.91;4990845;28;20073;-62
2021/07/17 07:48:12;;;;;;;28.25;17.02;;;;;;;17.33;90.87;98280.34;4989744;28;20054;-61
2021/07/17 07:51:00;;;;;;;29.92;17.27;;;;;;;17.57;89.41;98282.44;4988521;28;20098;-61
2021/07/17 07:53:48;;;;;;;42.42;18.67;;;;;;;17.51;89.42;98286.25;4979957;28;20108;-61
2021/07/17 07:56:36;;;;;;;27.30;15.77;;;;;;;17.71;88.74;98284.22;4982154;28;20156;-61
2021/07/17 07:59:24;;;;;;;32.40;15.93;;;;;;;17.76;89.03;98285.63;4984148;28;20434;-61
2021/07/17 08:02:12;;;;;;;30.83;16.45;;;;;;;17.95;87.88;98288.03;4976275;28;20035;-61
2021/07/17 08:05:00;;;;;;;28.27;16.40;;;;;;;17.93;87.16;98283.81;4989704;28;20054;-62
2021/07/17 08:07:47;;;;;;;18.88;12.52;;;;;;;18.26;85.55;98288.72;4991410;28;20034;-62
2021/07/17 08:10:35;;;;;;;24.10;13.90;;;;;;;17.88;85.90;98291.09;4990294;28;20141;-61
2021/07/17 08:13:23;;;;;;;18.95;12.00;;;;;;;17.91;87.24;98283.88;4990108;28;20042;-62
2021/07/17 08:16:11;;;;;;;22.52;11.73;;;;;;;18.30;84.62;98277.09;4990505;28;20078;-62
2021/07/17 08:18:58;;;;;;;20.13;11.45;;;;;;;17.87;85.83;98286.78;4987471;28;20584;-61
2021/07/17 08:21:46;;;;;;;19.05;11.07;;;;;;;18.41;83.43;98280.84;4983191;28;20050;-62
2021/07/17 08:24:34;;;;;;;18.75;10.23;;;;;;;18.71;81.96;98281.50;4989743;28;20034;-62
2021/07/17 08:27:21;;;;;;;17.98;10.18;;;;;;;18.81;81.50;98293.13;4988318;28;20442;-61
2021/07/17 08:30:11;;;;;;;26.08;12.45;;;;;;;17.96;83.25;98281.81;4990135;28;20125;-62
2021/07/17 08:33:14;;;;;;;17.83;10.68;;;;;;;18.03;84.42;98284.91;4990555;28;20042;-62
2021/07/17 08:36:02;;;;;;;22.15;10.73;;;;;;;18.28;83.54;98281.59;4972921;28;20039;-61
2021/07/17 08:38:49;;;;;;;20.02;11.27;;;;;;;18.20;83.26;98286.50;4985309;28;20112;-61
2021/07/17 08:41:41;;;;;;;23.88;11.48;;;;;;;18.08;83.44;98285.47;4987930;28;20387;-62
2021/07/17 08:44:28;;;;;;;16.27;9.98;;;;;;;18.46;83.00;98287.50;4976546;28;20047;-62
2021/07/17 08:47:16;;;;;;;21.63;11.48;;;;;;;18.17;83.50;98292.78;4990271;28;20073;-61
2021/07/17 08:50:06;;;;;;;25.42;12.02;;;;;;;18.13;83.89;98290.44;4976073;28;20466;-62
2021/07/17 08:52:56;;;;;;;21.30;12.48;;;;;;;17.60;86.73;98287.47;4981756;28;20097;-61
2021/07/17 08:55:44;;;;;;;21.73;12.90;;;;;;;17.70;86.71;98286.00;4991475;28;20149;-62
2021/07/17 08:58:32;;;;;;;23.67;13.40;;;;;;;17.81;85.93;98290.63;4992707;28;20117;-61
2021/07/17 09:01:20;;;;;;;25.80;14.55;;;;;;;17.87;85.91;98286.78;4998287;28;20038;-62
2021/07/17 09:04:08;;;;;;;20.02;13.15;;;;;;;17.98;84.69;98286.97;4989543;28;20043;-61
2021/07/17 09:06:56;;;;;;;24.00;13.27;;;;;;;18.73;81.69;98276.16;4988546;28;20515;-61
2021/07/17 09:09:44;;;;;;;21.30;13.45;;;;;;;18.80;81.21;98274.84;4989080;28;20085;-61
2021/07/17 09:12:31;;;;;;;21.60;11.00;;;;;;;19.61;80.00;98271.19;4996606;28;20046;-61
2021/07/17 09:15:19;;;;;;;16.55;10.02;;;;;;;19.81;77.76;98269.88;4987401;28;20070;-61
2021/07/17 09:18:07;;;;;;;18.17;10.50;;;;;;;19.37;77.64;98276.34;4989115;28;20050;-62
2021/07/17 09:21:00;;;;;;;12.48;8.60;;;;;;;19.71;76.68;98279.38;4986727;28;20412;-62
2021/07/17 09:24:01;;;;;;;16.42;9.48;;;;;;;19.17;77.85;98275.88;4989073;28;20054;-62
2021/07/17 09:26:56;;;;;;;12.38;8.88;;;;;;;18.96;79.88;98278.16;4974745;28;20150;-62
2021/07/17 09:29:44;;;;;;;15.18;10.00;;;;;;;18.80;80.25;98275.69;4987283;28;20116;-61
2021/07/17 09:32:31;;;;;;;16.15;9.82;;;;;;;18.67;80.34;98269.50;4989169;28;20046;-62
2021/07/17 09:35:22;;;;;;;13.93;8.95;;;;;;;19.34;79.62;98281.81;4989102;28;20042;-61
2021/07/17 09:38:11;;;;;;;12.18;8.07;;;;;;;19.69;77.02;98266.28;4987972;28;20070;-61
2021/07/17 09:41:05;;;;;;;11.30;7.85;;;;;;;19.92;75.37;98263.84;4986178;28;20058;-61
2021/07/17 09:44:03;;;;;;;16.67;8.68;;;;;;;19.69;76.97;98262.81;4975168;28;20233;-61
2021/07/17 09:46:51;;;;;;;14.23;9.02;;;;;;;19.26;77.34;98265.69;4989186;28;20121;-61
2021/07/17 09:49:39;;;;;;;14.02;9.23;;;;;;;19.29;78.25;98263.69;4991998;28;20515;-62
2021/07/17 09:52:27;;;;;;;18.30;8.52;;;;;;;18.94;79.25;98259.00;4966300;28;20478;-62
2021/07/17 09:55:16;;;;;;;15.48;9.60;;;;;;;18.91;79.51;98261.84;4991522;28;20038;-61
2021/07/17 09:58:11;;;;;;;13.00;7.68;;;;;;;19.06;79.81;98265.22;4976976;28;20098;-62
2021/07/17 10:01:22;;;;;;;16.63;9.80;;;;;;;18.78;80.53;98269.66;4991163;28;20054;-62
2021/07/17 10:04:13;;;;;;;15.35;9.45;;;;;;;18.56;81.51;98264.91;4976010;28;20057;-62
2021/07/17 10:07:08;;;;;;;15.32;9.90;;;;;;;18.57;81.64;98260.53;4979712;28;20046;-62
2021/07/17 10:09:56;;;;;;;16.98;9.68;;;;;;;18.71;81.46;98262.25;4989560;28;20117;-61
2021/07/17 10:12:44;;;;;;;12.55;9.05;;;;;;;18.84;81.19;98262.31;4989680;28;21366;-62
2021/07/17 10:15:33;;;;;;;16.67;10.02;;;;;;;18.60;81.52;98260.31;4992363;28;20054;-62
2021/07/17 10:18:25;;;;;;;18.40;10.63;;;;;;;18.81;81.28;98263.38;4990434;28;20050;-64
2021/07/17 10:21:13;;;;;;;15.63;9.10;;;;;;;19.04;81.18;98263.66;4975444;28;20085;-62
2021/07/17 10:24:02;;;;;;;14.10;9.40;;;;;;;19.45;79.55;98260.88;4977654;28;20061;-62
2021/07/17 10:26:54;;;;;;;16.50;9.82;;;;;;;19.56;78.38;98257.50;4991183;28;20050;-62
2021/07/17 10:29:42;;;;;;;18.42;10.25;;;;;;;19.49;77.38;98254.44;4992562;28;20137;-62
2021/07/17 10:32:31;;;;;;;14.27;9.45;;;;;;;19.37;79.38;98252.66;4971636;28;20054;-62
2021/07/17 10:35:19;;;;;;;17.55;10.10;;;;;;;19.46;78.37;98246.78;4991991;28;20047;-62
2021/07/17 10:38:09;;;;;;;14.52;9.50;;;;;;;19.43;78.19;98246.97;4992013;28;20035;-62
2021/07/17 10:40:58;;;;;;;15.07;10.07;;;;;;;20.07;75.75;98233.81;4976634;28;20073;-62
2021/07/17 10:43:52;;;;;;;15.45;9.13;;;;;;;20.73;73.88;98236.94;4977211;28;20046;-62
2021/07/17 10:46:43;;;;;;;15.13;8.85;;;;;;;20.47;73.35;98238.84;4989821;28;20043;-63
2021/07/17 10:50:00;;;;;;;14.52;8.05;;;;;;;20.85;71.70;98241.34;4991085;28;20042;-63
2021/07/17 10:52:49;;;;;;;13.55;9.57;;;;;;;20.81;71.50;98237.25;4994172;28;20050;-62
2021/07/17 10:55:36;;;;;;;16.13;8.15;;;;;;;21.44;70.91;98227.25;4999320;28;20069;-62
2021/07/17 10:58:36;;;;;;;14.57;8.80;;;;;;;20.82;72.53;98235.44;5002483;28;20068;-62
2021/07/17 11:01:25;;;;;;;13.65;9.52;;;;;;;20.64;73.06;98237.63;4973083;28;20057;-63
2021/07/17 11:04:39;;;;;;;16.80;8.70;;;;;;;20.92;71.93;98233.81;4990653;28;20052;-62
2021/07/17 11:07:26;;;;;;;15.32;8.32;;;;;;;21.36;70.76;98234.06;4975643;28;20042;-63
2021/07/17 11:10:16;;;;;;;12.52;8.70;;;;;;;21.00;71.53;98228.78;4991355;28;20175;-62
2021/07/17 11:13:04;;;;;;;13.50;8.95;;;;;;;21.48;70.64;98228.72;4989884;28;20058;-63
2021/07/17 11:15:52;;;;;;;15.93;8.32;;;;;;;21.83;69.28;98229.59;4973479;28;20065;-63
2021/07/17 11:18:40;;;;;;;14.18;7.45;;;;;;;21.91;69.14;98216.59;4986900;28;20055;-62
2021/07/17 11:21:33;;;;;;;11.52;6.63;;;;;;;22.97;67.01;98227.41;4991096;28;20038;-63
2021/07/17 11:24:25;;;;;;;11.65;7.32;;;;;;;22.86;65.63;98230.09;4990245;28;20050;-63
2021/07/17 11:27:16;;;;;;;11.65;8.38;;;;;;;22.06;68.12;98223.31;4974139;28;20594;-63
2021/07/17 11:30:13;;;;;;;12.57;7.53;;;;;;;22.50;66.63;98223.38;4989581;28;20041;-63
2021/07/17 11:33:07;;;;;;;10.63;6.90;;;;;;;22.86;66.72;98224.81;4990078;28;20557;-62
2021/07/17 11:35:55;;;;;;;13.60;7.15;;;;;;;22.60;67.06;98219.00;4990727;28;20447;-63
2021/07/17 11:38:43;;;;;;;17.10;10.23;;;;;;;22.32;67.65;98225.69;4990697;28;20046;-62
2021/07/17 11:41:31;;;;;;;11.80;8.65;;;;;;;22.97;65.96;98224.78;4991175;28;20057;-63
2021/07/17 11:44:18;;;;;;;14.10;8.55;;;;;;;24.13;63.42;98212.31;4991377;28;20050;-62
2021/07/17 11:47:08;;;;;;;11.90;8.68;;;;;;;24.80;62.54;98216.09;4981699;28;20486;-62
2021/07/17 11:49:59;;;;;;;16.92;9.50;;;;;;;25.08;59.08;98208.25;4974426;28;20049;-63
2021/07/17 11:52:47;;;;;;;15.27;9.93;;;;;;;23.81;62.47;98215.97;4990807;28;20066;-62
2021/07/17 11:55:35;;;;;;;17.55;9.77;;;;;;;24.54;59.87;98207.81;4995008;28;20053;-62
2021/07/17 11:58:23;;;;;;;20.55;11.50;;;;;;;23.93;61.56;98200.81;4989977;28;20039;-63
2021/07/17 12:01:14;;;;;;;21.98;12.43;;;;;;;22.58;66.24;98212.16;4976497;28;20142;-63
2021/07/17 12:04:02;;;;;;;21.20;13.18;;;;;;;22.38;67.29;98213.81;4989000;28;20518;-63
2021/07/17 12:06:59;;;;;;;19.42;11.98;;;;;;;23.77;63.03;98215.41;4990536;28;20042;-62
2021/07/17 12:10:08;;;;;;;22.88;13.63;;;;;;;24.06;61.65;98200.56;4989235;28;20073;-63
2021/07/17 12:12:59;;;;;;;23.60;13.52;;;;;;;24.41;59.88;98198.28;4986658;28;20053;-63
2021/07/17 12:15:47;;;;;;;20.23;14.25;;;;;;;24.56;60.78;98193.47;4988925;28;20046;-63
2021/07/17 12:18:35;;;;;;;22.88;15.07;;;;;;;24.17;62.06;98196.00;4989043;28;20058;-63
2021/07/17 12:21:23;;;;;;;17.35;12.68;;;;;;;25.04;60.80;98191.75;4988439;28;20846;-62
2021/07/17 12:24:10;;;;;;;22.25;14.70;;;;;;;26.15;58.28;98190.16;4990742;28;20096;-63
2021/07/17 12:27:04;;;;;;;21.42;15.45;;;;;;;25.38;58.49;98191.28;4970151;28;20050;-63
2021/07/17 12:29:51;;;;;;;17.88;13.15;;;;;;;26.19;56.55;98196.03;4989833;28;20042;-63
2021/07/17 12:32:39;;;;;;;21.55;15.68;;;;;;;25.58;57.73;98203.53;4989083;28;20069;-63
2021/07/17 12:35:27;;;;;;;22.15;14.80;;;;;;;25.23;58.81;98194.41;4988694;28;20046;-63
2021/07/17 12:38:28;;;;;;;23.90;15.45;;;;;;;25.03;59.47;98203.38;4989359;28;20094;-63
2021/07/17 12:41:24;;;;;;;23.02;16.67;;;;;;;24.54;60.96;98203.38;4986663;28;20089;-63
2021/07/17 12:44:16;;;;;;;17.05;12.45;;;;;;;26.21;56.22;98202.88;4987045;28;20521;-62
2021/07/17 12:47:04;;;;;;;20.30;14.25;;;;;;;25.45;57.47;98206.53;4986525;28;20039;-63
2021/07/17 12:50:02;;;;;;;23.85;15.60;;;;;;;24.61;59.75;98196.53;4985237;28;20046;-63
2021/07/17 12:53:10;;;;;;;20.40;16.42;;;;;;;23.74;63.56;98202.44;4986313;28;20053;-63